sensor_id;sensor_type;location;lat;lon;timestamp;pressure;altitude;pressure_sealevel;temperature;humidity
21728;BME280;11026;50.560;17.852;2023-06-04T00:02:03;99995.47;;;10.35;63.06
21728;BME280;11026;50.560;17.852;2023-06-04T00:04:30;99994.81;;;10.28;63.72
21728;BME280;11026;50.560;17.852;2023-06-04T00:06:59;99992.47;;;10.19;64.02
21728;BME280;11026;50.560;17.852;2023-06-04T00:09:28;99992.81;;;10.10;64.68
21728;BME280;11026;50.560;17.852;2023-06-04T00:11:56;99988.91;;;9.95;65.23
21728;BME280;11026;50.560;17.852;2023-06-04T00:14:23;99993.69;;;9.84;65.94
21728;BME280;11026;50.560;17.852;2023-06-04T00:16:52;99987.38;;;9.61;66.79
21728;BME280;11026;50.560;17.852;2023-06-04T00:19:20;99986.75;;;9.53;67.54
21728;BME280;11026;50.560;17.852;2023-06-04T00:21:50;99989.09;;;9.36;68.36
21728;BME280;11026;50.560;17.852;2023-06-04T00:24:17;99989.56;;;9.21;69.10
21728;BME280;11026;50.560;17.852;2023-06-04T00:26:45;99989.66;;;9.18;69.07
21728;BME280;11026;50.560;17.852;2023-06-04T00:29:13;99990.28;;;9.26;69.54
21728;BME280;11026;50.560;17.852;2023-06-04T00:31:46;99987.63;;;9.26;69.34
21728;BME280;11026;50.560;17.852;2023-06-04T00:34:14;99983.19;;;9.28;70.25
21728;BME280;11026;50.560;17.852;2023-06-04T00:36:42;99986.75;;;9.27;69.00
21728;BME280;11026;50.560;17.852;2023-06-04T00:39:09;99987.75;;;9.23;68.53
21728;BME280;11026;50.560;17.852;2023-06-04T00:41:38;99979.47;;;9.05;69.09
21728;BME280;11026;50.560;17.852;2023-06-04T00:44:05;99993.34;;;8.84;70.56
21728;BME280;11026;50.560;17.852;2023-06-04T00:46:35;99984.50;;;8.55;71.60
21728;BME280;11026;50.560;17.852;2023-06-04T00:49:04;99992.41;;;8.55;72.07
21728;BME280;11026;50.560;17.852;2023-06-04T00:51:32;99979.72;;;8.37;72.90
21728;BME280;11026;50.560;17.852;2023-06-04T00:54:02;99977.44;;;8.23;73.86
21728;BME280;11026;50.560;17.852;2023-06-04T00:56:37;99981.59;;;7.99;75.28
21728;BME280;11026;50.560;17.852;2023-06-04T00:59:07;99974.78;;;7.92;77.03
21728;BME280;11026;50.560;17.852;2023-06-04T01:07:04;99981.16;;;7.82;78.46
21728;BME280;11026;50.560;17.852;2023-06-04T01:09:35;99978.16;;;7.96;78.90
21728;BME280;11026;50.560;17.852;2023-06-04T01:12:04;99968.66;;;7.90;79.34
21728;BME280;11026;50.560;17.852;2023-06-04T01:14:32;99973.13;;;7.88;79.09
21728;BME280;11026;50.560;17.852;2023-06-04T01:20:27;99974.13;;;7.84;78.74
21728;BME280;11026;50.560;17.852;2023-06-04T01:25:37;99981.84;;;7.54;80.67
21728;BME280;11026;50.560;17.852;2023-06-04T01:28:13;99979.28;;;7.53;81.30
21728;BME280;11026;50.560;17.852;2023-06-04T01:30:46;99973.50;;;7.37;82.52
21728;BME280;11026;50.560;17.852;2023-06-04T01:33:17;99966.44;;;7.39;82.51
21728;BME280;11026;50.560;17.852;2023-06-04T01:35:45;99970.09;;;7.32;83.17
21728;BME280;11026;50.560;17.852;2023-06-04T01:38:13;99962.31;;;7.27;84.04
21728;BME280;11026;50.560;17.852;2023-06-04T01:40:41;99969.75;;;7.10;84.79
21728;BME280;11026;50.560;17.852;2023-06-04T01:43:09;99976.22;;;7.34;84.44
21728;BME280;11026;50.560;17.852;2023-06-04T01:45:38;99973.72;;;7.28;84.39
21728;BME280;11026;50.560;17.852;2023-06-04T01:48:07;99968.78;;;7.14;84.73
21728;BME280;11026;50.560;17.852;2023-06-04T01:50:34;99973.91;;;6.80;85.46
21728;BME280;11026;50.560;17.852;2023-06-04T01:53:02;99975.47;;;6.48;87.31
21728;BME280;11026;50.560;17.852;2023-06-04T01:55:29;99968.59;;;6.41;88.06
21728;BME280;11026;50.560;17.852;2023-06-04T01:58:00;99964.22;;;6.42;88.89
21728;BME280;11026;50.560;17.852;2023-06-04T02:00:27;99970.16;;;6.51;89.00
21728;BME280;11026;50.560;17.852;2023-06-04T02:02:54;99973.69;;;6.50;88.94
21728;BME280;11026;50.560;17.852;2023-06-04T02:05:23;99974.41;;;6.57;89.53
21728;BME280;11026;50.560;17.852;2023-06-04T02:07:51;99981.72;;;6.43;90.38
21728;BME280;11026;50.560;17.852;2023-06-04T02:10:19;99973.13;;;6.34;91.47
21728;BME280;11026;50.560;17.852;2023-06-04T02:15:23;99970.50;;;6.33;92.33
21728;BME280;11026;50.560;17.852;2023-06-04T02:17:50;99973.03;;;6.39;91.69
21728;BME280;11026;50.560;17.852;2023-06-04T02:20:18;99973.84;;;6.41;91.79
21728;BME280;11026;50.560;17.852;2023-06-04T02:22:45;99975.56;;;6.44;91.50
21728;BME280;11026;50.560;17.852;2023-06-04T02:25:13;99968.41;;;6.50;91.42
21728;BME280;11026;50.560;17.852;2023-06-04T02:27:42;99977.06;;;6.55;91.02
21728;BME280;11026;50.560;17.852;2023-06-04T02:30:11;99975.91;;;6.69;90.82
21728;BME280;11026;50.560;17.852;2023-06-04T02:32:38;99976.72;;;6.72;90.25
21728;BME280;11026;50.560;17.852;2023-06-04T02:35:06;99969.63;;;6.76;88.91
21728;BME280;11026;50.560;17.852;2023-06-04T02:37:34;99972.25;;;6.77;88.13
21728;BME280;11026;50.560;17.852;2023-06-04T02:40:01;99972.94;;;6.84;87.97
21728;BME280;11026;50.560;17.852;2023-06-04T02:42:29;99966.72;;;6.88;87.68
21728;BME280;11026;50.560;17.852;2023-06-04T02:44:56;99964.97;;;6.88;87.63
21728;BME280;11026;50.560;17.852;2023-06-04T02:47:23;99967.69;;;6.84;88.18
21728;BME280;11026;50.560;17.852;2023-06-04T02:49:51;99971.16;;;6.86;88.81
21728;BME280;11026;50.560;17.852;2023-06-04T02:52:19;99968.66;;;6.81;88.71
21728;BME280;11026;50.560;17.852;2023-06-04T02:54:48;99968.56;;;6.84;88.55
21728;BME280;11026;50.560;17.852;2023-06-04T02:57:16;99966.72;;;6.88;88.60
21728;BME280;11026;50.560;17.852;2023-06-04T02:59:43;99964.09;;;6.88;88.42
21728;BME280;11026;50.560;17.852;2023-06-04T03:02:11;99964.03;;;6.91;88.31
21728;BME280;11026;50.560;17.852;2023-06-04T03:04:39;99962.38;;;6.87;87.59
21728;BME280;11026;50.560;17.852;2023-06-04T03:07:08;99964.91;;;6.92;87.21
21728;BME280;11026;50.560;17.852;2023-06-04T03:09:40;99961.44;;;6.89;87.16
21728;BME280;11026;50.560;17.852;2023-06-04T03:12:07;99975.41;;;6.92;87.58
21728;BME280;11026;50.560;17.852;2023-06-04T03:14:36;99968.31;;;6.95;86.91
21728;BME280;11026;50.560;17.852;2023-06-04T03:17:03;99969.19;;;6.97;86.76
21728;BME280;11026;50.560;17.852;2023-06-04T03:19:41;99969.94;;;7.02;86.70
21728;BME280;11026;50.560;17.852;2023-06-04T03:22:09;99973.28;;;7.09;86.55
21728;BME280;11026;50.560;17.852;2023-06-04T03:24:41;99976.75;;;7.11;86.38
21728;BME280;11026;50.560;17.852;2023-06-04T03:27:09;99980.97;;;7.18;86.62
21728;BME280;11026;50.560;17.852;2023-06-04T03:29:37;99982.56;;;7.24;86.05
21728;BME280;11026;50.560;17.852;2023-06-04T03:32:05;99980.91;;;7.21;86.06
21728;BME280;11026;50.560;17.852;2023-06-04T03:34:33;99987.13;;;7.17;86.33
21728;BME280;11026;50.560;17.852;2023-06-04T03:37:01;99990.56;;;7.21;87.39
21728;BME280;11026;50.560;17.852;2023-06-04T03:39:30;99986.97;;;7.25;88.04
21728;BME280;11026;50.560;17.852;2023-06-04T03:41:57;99989.91;;;7.11;88.98
21728;BME280;11026;50.560;17.852;2023-06-04T03:44:27;99987.72;;;7.30;89.95
21728;BME280;11026;50.560;17.852;2023-06-04T03:46:54;99994.13;;;7.55;90.29
21728;BME280;11026;50.560;17.852;2023-06-04T03:49:22;99992.19;;;7.62;91.32
21728;BME280;11026;50.560;17.852;2023-06-04T03:51:51;99990.97;;;7.75;91.58
21728;BME280;11026;50.560;17.852;2023-06-04T03:54:19;100001.22;;;7.87;89.36
21728;BME280;11026;50.560;17.852;2023-06-04T03:56:46;100007.44;;;7.85;88.86
21728;BME280;11026;50.560;17.852;2023-06-04T03:59:14;100001.44;;;7.78;89.39
21728;BME280;11026;50.560;17.852;2023-06-04T04:01:42;100001.88;;;7.60;90.80
21728;BME280;11026;50.560;17.852;2023-06-04T04:04:10;100000.97;;;7.62;91.99
21728;BME280;11026;50.560;17.852;2023-06-04T04:06:38;100002.69;;;7.63;92.61
21728;BME280;11026;50.560;17.852;2023-06-04T04:09:07;99994.28;;;7.85;93.02
21728;BME280;11026;50.560;17.852;2023-06-04T04:11:34;99992.78;;;8.07;92.93
21728;BME280;11026;50.560;17.852;2023-06-04T04:14:04;99998.63;;;8.19;92.66
21728;BME280;11026;50.560;17.852;2023-06-04T04:16:31;99996.72;;;8.25;92.92
21728;BME280;11026;50.560;17.852;2023-06-04T04:19:02;99994.78;;;8.32;93.73
21728;BME280;11026;50.560;17.852;2023-06-04T04:21:30;99985.66;;;8.45;94.37
21728;BME280;11026;50.560;17.852;2023-06-04T04:23:58;99991.41;;;8.59;94.69
21728;BME280;11026;50.560;17.852;2023-06-04T04:26:25;99981.59;;;8.65;95.38
21728;BME280;11026;50.560;17.852;2023-06-04T04:28:54;99988.28;;;8.76;96.59
21728;BME280;11026;50.560;17.852;2023-06-04T04:31:27;99992.56;;;8.79;96.89
21728;BME280;11026;50.560;17.852;2023-06-04T04:33:55;99994.06;;;8.89;95.14
21728;BME280;11026;50.560;17.852;2023-06-04T04:36:23;99988.41;;;9.01;93.65
21728;BME280;11026;50.560;17.852;2023-06-04T04:38:51;99999.34;;;9.17;90.18
21728;BME280;11026;50.560;17.852;2023-06-04T04:41:24;100003.09;;;9.38;85.95
21728;BME280;11026;50.560;17.852;2023-06-04T04:43:52;99999.06;;;9.54;81.78
21728;BME280;11026;50.560;17.852;2023-06-04T04:46:20;99999.13;;;9.79;79.00
21728;BME280;11026;50.560;17.852;2023-06-04T04:48:49;100000.28;;;9.97;76.63
21728;BME280;11026;50.560;17.852;2023-06-04T04:51:18;99998.13;;;10.08;75.53
21728;BME280;11026;50.560;17.852;2023-06-04T04:53:45;99998.53;;;10.23;74.63
21728;BME280;11026;50.560;17.852;2023-06-04T04:56:13;100007.94;;;10.31;73.91
21728;BME280;11026;50.560;17.852;2023-06-04T04:58:41;100003.72;;;10.51;71.98
21728;BME280;11026;50.560;17.852;2023-06-04T05:01:09;100008.56;;;10.63;71.13
21728;BME280;11026;50.560;17.852;2023-06-04T05:03:36;100012.66;;;10.72;70.71
21728;BME280;11026;50.560;17.852;2023-06-04T05:06:17;100009.38;;;10.89;69.34
21728;BME280;11026;50.560;17.852;2023-06-04T05:08:45;100008.19;;;10.97;69.18
21728;BME280;11026;50.560;17.852;2023-06-04T05:11:12;100014.72;;;11.11;69.37
21728;BME280;11026;50.560;17.852;2023-06-04T05:13:42;100008.94;;;11.23;68.36
21728;BME280;11026;50.560;17.852;2023-06-04T05:16:11;100019.06;;;11.35;67.55
21728;BME280;11026;50.560;17.852;2023-06-04T05:18:39;100016.97;;;11.43;66.44
21728;BME280;11026;50.560;17.852;2023-06-04T05:21:12;100019.94;;;11.57;66.26
21728;BME280;11026;50.560;17.852;2023-06-04T05:23:46;100021.22;;;11.69;65.46
21728;BME280;11026;50.560;17.852;2023-06-04T05:26:15;100011.94;;;11.79;64.95
21728;BME280;11026;50.560;17.852;2023-06-04T05:28:43;100017.91;;;11.86;64.99
21728;BME280;11026;50.560;17.852;2023-06-04T05:31:10;100011.31;;;11.96;64.10
21728;BME280;11026;50.560;17.852;2023-06-04T05:33:40;100010.78;;;12.09;64.55
21728;BME280;11026;50.560;17.852;2023-06-04T05:36:07;100015.81;;;12.15;64.32
21728;BME280;11026;50.560;17.852;2023-06-04T05:38:35;100004.69;;;12.27;63.88
21728;BME280;11026;50.560;17.852;2023-06-04T05:41:04;100012.16;;;12.38;63.59
21728;BME280;11026;50.560;17.852;2023-06-04T05:43:33;100011.91;;;12.44;62.38
21728;BME280;11026;50.560;17.852;2023-06-04T05:46:00;100008.00;;;12.52;61.63
21728;BME280;11026;50.560;17.852;2023-06-04T05:48:28;99998.16;;;12.54;61.07
21728;BME280;11026;50.560;17.852;2023-06-04T05:50:55;100008.25;;;12.46;61.20
21728;BME280;11026;50.560;17.852;2023-06-04T05:53:23;100010.84;;;12.48;62.02
21728;BME280;11026;50.560;17.852;2023-06-04T05:55:50;100008.50;;;12.61;61.73
21728;BME280;11026;50.560;17.852;2023-06-04T05:58:17;100009.41;;;12.80;61.63
21728;BME280;11026;50.560;17.852;2023-06-04T06:00:45;100014.59;;;12.83;61.54
21728;BME280;11026;50.560;17.852;2023-06-04T06:03:13;100010.28;;;12.99;62.52
21728;BME280;11026;50.560;17.852;2023-06-04T06:05:43;100002.38;;;13.17;60.96
21728;BME280;11026;50.560;17.852;2023-06-04T06:08:11;100012.47;;;13.29;59.81
21728;BME280;11026;50.560;17.852;2023-06-04T06:10:38;100013.75;;;13.39;59.22
21728;BME280;11026;50.560;17.852;2023-06-04T06:13:06;100014.63;;;13.40;59.22
21728;BME280;11026;50.560;17.852;2023-06-04T06:15:33;100023.34;;;13.42;59.29
21728;BME280;11026;50.560;17.852;2023-06-04T06:18:01;100021.34;;;13.47;59.53
21728;BME280;11026;50.560;17.852;2023-06-04T06:20:29;100023.44;;;13.59;58.69
21728;BME280;11026;50.560;17.852;2023-06-04T06:22:56;100032.88;;;13.65;57.99
21728;BME280;11026;50.560;17.852;2023-06-04T06:25:24;100030.22;;;13.65;58.20
21728;BME280;11026;50.560;17.852;2023-06-04T06:27:51;100029.63;;;13.77;58.04
21728;BME280;11026;50.560;17.852;2023-06-04T06:30:18;100034.03;;;13.95;58.52
21728;BME280;11026;50.560;17.852;2023-06-04T06:32:46;100036.22;;;14.05;57.93
21728;BME280;11026;50.560;17.852;2023-06-04T06:35:16;100038.28;;;14.17;58.93
21728;BME280;11026;50.560;17.852;2023-06-04T06:37:43;100038.13;;;14.37;59.44
21728;BME280;11026;50.560;17.852;2023-06-04T06:40:12;100032.22;;;14.48;57.81
21728;BME280;11026;50.560;17.852;2023-06-04T06:42:39;100032.31;;;14.64;56.83
21728;BME280;11026;50.560;17.852;2023-06-04T06:45:07;100032.31;;;14.64;56.51
21728;BME280;11026;50.560;17.852;2023-06-04T06:47:36;100034.97;;;14.81;57.87
21728;BME280;11026;50.560;17.852;2023-06-04T06:50:05;100037.81;;;14.94;56.77
21728;BME280;11026;50.560;17.852;2023-06-04T06:52:32;100036.91;;;15.11;58.08
21728;BME280;11026;50.560;17.852;2023-06-04T06:55:02;100038.63;;;15.28;56.57
21728;BME280;11026;50.560;17.852;2023-06-04T06:57:30;100034.78;;;15.33;55.48
21728;BME280;11026;50.560;17.852;2023-06-04T06:59:57;100035.28;;;15.56;56.82
21728;BME280;11026;50.560;17.852;2023-06-04T07:02:25;100034.66;;;15.68;57.27
21728;BME280;11026;50.560;17.852;2023-06-04T07:04:53;100030.50;;;15.78;55.54
21728;BME280;11026;50.560;17.852;2023-06-04T07:07:21;100033.13;;;15.94;55.68
21728;BME280;11026;50.560;17.852;2023-06-04T07:09:48;100033.78;;;16.13;56.27
21728;BME280;11026;50.560;17.852;2023-06-04T07:12:16;100037.16;;;16.31;55.54
21728;BME280;11026;50.560;17.852;2023-06-04T07:14:43;100034.91;;;16.39;55.08
21728;BME280;11026;50.560;17.852;2023-06-04T07:17:11;100029.41;;;16.57;53.05
21728;BME280;11026;50.560;17.852;2023-06-04T07:19:38;100034.13;;;16.37;52.32
21728;BME280;11026;50.560;17.852;2023-06-04T07:22:06;100033.53;;;16.32;53.24
21728;BME280;11026;50.560;17.852;2023-06-04T07:24:33;100028.81;;;16.52;53.68
21728;BME280;11026;50.560;17.852;2023-06-04T07:27:01;100031.66;;;16.63;52.18
21728;BME280;11026;50.560;17.852;2023-06-04T07:29:28;100029.28;;;16.58;52.61
21728;BME280;11026;50.560;17.852;2023-06-04T07:31:56;100034.56;;;16.60;53.33
21728;BME280;11026;50.560;17.852;2023-06-04T07:34:25;100030.97;;;16.75;52.68
21728;BME280;11026;50.560;17.852;2023-06-04T07:36:52;100032.50;;;16.93;51.26
21728;BME280;11026;50.560;17.852;2023-06-04T07:39:20;100026.75;;;17.14;52.51
21728;BME280;11026;50.560;17.852;2023-06-04T07:41:52;100028.63;;;17.40;52.39
21728;BME280;11026;50.560;17.852;2023-06-04T07:44:21;100033.81;;;17.70;51.38
21728;BME280;11026;50.560;17.852;2023-06-04T07:46:48;100029.09;;;17.88;49.51
21728;BME280;11026;50.560;17.852;2023-06-04T07:49:16;100023.38;;;18.07;49.11
21728;BME280;11026;50.560;17.852;2023-06-04T07:51:43;100027.56;;;18.24;49.03
21728;BME280;11026;50.560;17.852;2023-06-04T07:54:12;100023.84;;;18.39;48.74
21728;BME280;11026;50.560;17.852;2023-06-04T07:56:41;100021.50;;;18.48;46.56
21728;BME280;11026;50.560;17.852;2023-06-04T07:59:09;100026.97;;;18.59;46.92
21728;BME280;11026;50.560;17.852;2023-06-04T08:01:36;100024.81;;;18.38;45.21
21728;BME280;11026;50.560;17.852;2023-06-04T08:04:03;100020.09;;;18.29;48.28
21728;BME280;11026;50.560;17.852;2023-06-04T08:06:36;100014.25;;;18.50;48.82
21728;BME280;11026;50.560;17.852;2023-06-04T08:09:06;100007.41;;;18.71;45.96
21728;BME280;11026;50.560;17.852;2023-06-04T08:11:36;100015.84;;;19.03;47.91
21728;BME280;11026;50.560;17.852;2023-06-04T08:14:03;100016.13;;;19.24;45.39
21728;BME280;11026;50.560;17.852;2023-06-04T08:16:32;100013.16;;;19.53;45.31
21728;BME280;11026;50.560;17.852;2023-06-04T08:18:59;100018.19;;;19.57;43.35
21728;BME280;11026;50.560;17.852;2023-06-04T08:21:28;100023.75;;;19.67;41.91
21728;BME280;11026;50.560;17.852;2023-06-04T08:23:56;100017.66;;;19.65;40.25
21728;BME280;11026;50.560;17.852;2023-06-04T08:26:25;100019.13;;;19.69;41.81
21728;BME280;11026;50.560;17.852;2023-06-04T08:28:55;100016.34;;;19.58;36.86
21728;BME280;11026;50.560;17.852;2023-06-04T08:31:22;100012.97;;;19.43;37.55
21728;BME280;11026;50.560;17.852;2023-06-04T08:33:50;100022.38;;;19.61;39.29
21728;BME280;11026;50.560;17.852;2023-06-04T08:36:19;100014.56;;;19.82;40.77
21728;BME280;11026;50.560;17.852;2023-06-04T08:38:48;100021.06;;;19.91;39.00
21728;BME280;11026;50.560;17.852;2023-06-04T08:41:52;100016.00;;;20.10;38.80
21728;BME280;11026;50.560;17.852;2023-06-04T08:44:19;100016.00;;;20.10;37.41
21728;BME280;11026;50.560;17.852;2023-06-04T08:46:51;100019.88;;;20.30;37.95
21728;BME280;11026;50.560;17.852;2023-06-04T08:49:22;100016.81;;;20.24;37.47
21728;BME280;11026;50.560;17.852;2023-06-04T08:51:49;100011.31;;;20.25;38.39
21728;BME280;11026;50.560;17.852;2023-06-04T08:54:18;100025.34;;;20.53;39.02
21728;BME280;11026;50.560;17.852;2023-06-04T08:56:45;100022.44;;;20.67;38.24
21728;BME280;11026;50.560;17.852;2023-06-04T08:59:14;100034.75;;;20.58;38.71
21728;BME280;11026;50.560;17.852;2023-06-04T09:01:42;100024.41;;;20.76;39.01
21728;BME280;11026;50.560;17.852;2023-06-04T09:04:13;100031.38;;;20.32;36.30
21728;BME280;11026;50.560;17.852;2023-06-04T09:06:41;100024.22;;;19.85;37.07
21728;BME280;11026;50.560;17.852;2023-06-04T09:09:12;100026.34;;;19.93;37.02
21728;BME280;11026;50.560;17.852;2023-06-04T09:11:49;100031.63;;;20.41;40.33
21728;BME280;11026;50.560;17.852;2023-06-04T09:14:18;100023.44;;;20.88;40.68
21728;BME280;11026;50.560;17.852;2023-06-04T09:16:47;100026.47;;;21.29;37.67
21728;BME280;11026;50.560;17.852;2023-06-04T09:19:16;100023.91;;;21.50;38.02
21728;BME280;11026;50.560;17.852;2023-06-04T09:21:55;100023.00;;;21.72;37.72
21728;BME280;11026;50.560;17.852;2023-06-04T09:24:37;100023.38;;;21.78;36.33
21728;BME280;11026;50.560;17.852;2023-06-04T09:27:12;100020.50;;;21.48;36.04
21728;BME280;11026;50.560;17.852;2023-06-04T09:32:29;100010.59;;;21.15;37.56
21728;BME280;11026;50.560;17.852;2023-06-04T09:37:42;100017.66;;;21.49;38.40
21728;BME280;11026;50.560;17.852;2023-06-04T09:40:11;100021.84;;;21.85;40.09
21728;BME280;11026;50.560;17.852;2023-06-04T09:42:45;100010.19;;;22.28;36.45
21728;BME280;11026;50.560;17.852;2023-06-04T09:45:12;100005.31;;;22.64;36.55
21728;BME280;11026;50.560;17.852;2023-06-04T09:47:44;100008.38;;;23.01;37.15
21728;BME280;11026;50.560;17.852;2023-06-04T09:50:11;100004.19;;;23.28;34.90
21728;BME280;11026;50.560;17.852;2023-06-04T09:52:39;100006.84;;;23.49;36.95
21728;BME280;11026;50.560;17.852;2023-06-04T09:55:17;100015.47;;;23.33;34.63
21728;BME280;11026;50.560;17.852;2023-06-04T09:57:47;99997.16;;;23.37;32.74
21728;BME280;11026;50.560;17.852;2023-06-04T10:00:17;100005.28;;;23.56;35.85
21728;BME280;11026;50.560;17.852;2023-06-04T10:02:45;100006.91;;;23.68;32.85
21728;BME280;11026;50.560;17.852;2023-06-04T10:05:16;99995.75;;;23.52;33.83
21728;BME280;11026;50.560;17.852;2023-06-04T10:07:45;99994.16;;;22.48;33.91
21728;BME280;11026;50.560;17.852;2023-06-04T10:10:20;99996.53;;;22.41;35.25
21728;BME280;11026;50.560;17.852;2023-06-04T10:12:52;99991.75;;;22.75;36.35
21728;BME280;11026;50.560;17.852;2023-06-04T10:15:22;99996.16;;;23.38;37.03
21728;BME280;11026;50.560;17.852;2023-06-04T10:17:50;99996.84;;;23.30;34.07
21728;BME280;11026;50.560;17.852;2023-06-04T10:20:20;100005.19;;;23.87;35.32
21728;BME280;11026;50.560;17.852;2023-06-04T10:22:49;100003.22;;;24.18;34.89
21728;BME280;11026;50.560;17.852;2023-06-04T10:25:18;99998.75;;;24.75;33.87
21728;BME280;11026;50.560;17.852;2023-06-04T10:27:46;100000.47;;;25.13;32.87
21728;BME280;11026;50.560;17.852;2023-06-04T10:30:15;99997.38;;;25.36;33.36
21728;BME280;11026;50.560;17.852;2023-06-04T10:32:42;100000.03;;;25.63;31.43
21728;BME280;11026;50.560;17.852;2023-06-04T10:35:13;100002.94;;;25.80;29.94
21728;BME280;11026;50.560;17.852;2023-06-04T10:37:41;99996.06;;;26.03;32.52
21728;BME280;11026;50.560;17.852;2023-06-04T10:40:09;99996.06;;;26.03;29.45
21728;BME280;11026;50.560;17.852;2023-06-04T10:42:47;99992.16;;;25.24;30.36
21728;BME280;11026;50.560;17.852;2023-06-04T10:45:28;99998.28;;;25.72;32.57
21728;BME280;11026;50.560;17.852;2023-06-04T10:48:09;99993.91;;;25.61;32.77
21728;BME280;11026;50.560;17.852;2023-06-04T10:50:52;99995.44;;;26.09;31.37
21728;BME280;11026;50.560;17.852;2023-06-04T10:53:20;99999.19;;;26.52;30.23
21728;BME280;11026;50.560;17.852;2023-06-04T10:55:52;99992.50;;;26.90;29.90
21728;BME280;11026;50.560;17.852;2023-06-04T10:58:20;99993.16;;;27.18;29.11
21728;BME280;11026;50.560;17.852;2023-06-04T11:00:48;99989.31;;;27.29;28.19
21728;BME280;11026;50.560;17.852;2023-06-04T11:03:16;99985.72;;;26.94;27.14
21728;BME280;11026;50.560;17.852;2023-06-04T11:05:49;99979.94;;;26.63;27.87
21728;BME280;11026;50.560;17.852;2023-06-04T11:08:27;99983.56;;;26.46;29.14
21728;BME280;11026;50.560;17.852;2023-06-04T11:10:58;99976.78;;;27.02;29.80
21728;BME280;11026;50.560;17.852;2023-06-04T11:13:26;99979.59;;;27.18;28.51
21728;BME280;11026;50.560;17.852;2023-06-04T11:15:53;99979.78;;;27.25;30.36
21728;BME280;11026;50.560;17.852;2023-06-04T11:18:23;99978.00;;;27.58;31.57
21728;BME280;11026;50.560;17.852;2023-06-04T11:20:59;99980.13;;;27.81;28.99
21728;BME280;11026;50.560;17.852;2023-06-04T11:23:27;99980.84;;;28.15;28.34
21728;BME280;11026;50.560;17.852;2023-06-04T11:25:55;99982.00;;;27.97;27.45
21728;BME280;11026;50.560;17.852;2023-06-04T11:28:22;99979.81;;;28.33;27.04
21728;BME280;11026;50.560;17.852;2023-06-04T11:31:00;99975.72;;;28.53;27.29
21728;BME280;11026;50.560;17.852;2023-06-04T11:33:44;99976.25;;;28.49;28.20
21728;BME280;11026;50.560;17.852;2023-06-04T11:36:29;99981.84;;;28.63;28.77
21728;BME280;11026;50.560;17.852;2023-06-04T11:39:01;99975.38;;;28.64;27.56
21728;BME280;11026;50.560;17.852;2023-06-04T11:41:33;99977.50;;;28.85;26.26
21728;BME280;11026;50.560;17.852;2023-06-04T11:44:05;99971.94;;;28.79;25.64
21728;BME280;11026;50.560;17.852;2023-06-04T11:46:39;99968.31;;;29.03;29.10
21728;BME280;11026;50.560;17.852;2023-06-04T11:49:07;99978.34;;;29.10;26.35
21728;BME280;11026;50.560;17.852;2023-06-04T11:51:35;99972.28;;;28.76;26.08
21728;BME280;11026;50.560;17.852;2023-06-04T11:54:03;99968.81;;;28.90;28.17
21728;BME280;11026;50.560;17.852;2023-06-04T11:56:31;99966.06;;;29.06;27.50
21728;BME280;11026;50.560;17.852;2023-06-04T11:58:58;99962.16;;;29.40;26.51
21728;BME280;11026;50.560;17.852;2023-06-04T12:01:26;99964.47;;;29.59;27.86
21728;BME280;11026;50.560;17.852;2023-06-04T12:03:55;99958.72;;;30.00;27.97
21728;BME280;11026;50.560;17.852;2023-06-04T12:06:23;99956.56;;;30.19;26.79
21728;BME280;11026;50.560;17.852;2023-06-04T12:08:54;99958.94;;;30.36;26.88
21728;BME280;11026;50.560;17.852;2023-06-04T12:11:26;99953.44;;;30.59;26.28
21728;BME280;11026;50.560;17.852;2023-06-04T12:13:55;99959.03;;;30.81;25.54
21728;BME280;11026;50.560;17.852;2023-06-04T12:16:25;99956.84;;;30.91;26.02
21728;BME280;11026;50.560;17.852;2023-06-04T12:19:14;99962.78;;;30.95;25.16
21728;BME280;11026;50.560;17.852;2023-06-04T12:21:43;99955.81;;;31.07;24.60
21728;BME280;11026;50.560;17.852;2023-06-04T12:24:12;99965.69;;;31.38;24.58
21728;BME280;11026;50.560;17.852;2023-06-04T12:26:42;99963.09;;;30.09;24.11
21728;BME280;11026;50.560;17.852;2023-06-04T12:29:17;99950.47;;;29.31;24.49
21728;BME280;11026;50.560;17.852;2023-06-04T12:31:47;99951.75;;;29.12;24.93
21728;BME280;11026;50.560;17.852;2023-06-04T12:34:15;99954.34;;;29.37;24.58
21728;BME280;11026;50.560;17.852;2023-06-04T12:36:44;99949.41;;;29.72;25.64
21728;BME280;11026;50.560;17.852;2023-06-04T12:39:12;99956.25;;;30.13;25.91
21728;BME280;11026;50.560;17.852;2023-06-04T12:41:45;99940.16;;;30.56;24.83
21728;BME280;11026;50.560;17.852;2023-06-04T12:44:12;99952.34;;;30.98;24.79
21728;BME280;11026;50.560;17.852;2023-06-04T12:46:40;99948.44;;;31.37;24.75
21728;BME280;11026;50.560;17.852;2023-06-04T12:49:13;99943.94;;;31.66;23.52
21728;BME280;11026;50.560;17.852;2023-06-04T12:51:47;99953.59;;;32.04;23.51
21728;BME280;11026;50.560;17.852;2023-06-04T12:54:14;99942.66;;;32.04;22.86
21728;BME280;11026;50.560;17.852;2023-06-04T12:56:44;99947.22;;;31.97;21.69
21728;BME280;11026;50.560;17.852;2023-06-04T12:59:13;99937.94;;;31.77;22.70
21728;BME280;11026;50.560;17.852;2023-06-04T13:01:46;99936.44;;;32.17;22.18
21728;BME280;11026;50.560;17.852;2023-06-04T13:04:13;99946.53;;;32.17;23.55
21728;BME280;11026;50.560;17.852;2023-06-04T13:06:41;99951.38;;;31.93;21.90
21728;BME280;11026;50.560;17.852;2023-06-04T13:09:10;99948.56;;;31.14;21.90
21728;BME280;11026;50.560;17.852;2023-06-04T13:11:42;99941.25;;;30.85;23.26
21728;BME280;11026;50.560;17.852;2023-06-04T13:14:10;99937.88;;;31.49;24.48
21728;BME280;11026;50.560;17.852;2023-06-04T13:16:38;99937.63;;;31.87;22.88
21728;BME280;11026;50.560;17.852;2023-06-04T13:19:06;99940.28;;;32.23;23.00
21728;BME280;11026;50.560;17.852;2023-06-04T13:21:34;99944.31;;;32.48;22.87